sensor_id;sensor_type;location;lat;lon;timestamp;P1;durP1;ratioP1;P2;durP2;ratioP2
14611;SDS011;7392;52.078;11.650;2023-12-20T00:01:16;1.77;;;1.50;;
14611;SDS011;7392;52.078;11.650;2023-12-20T00:03:44;1.20;;;1.10;;
14611;SDS011;7392;52.078;11.650;2023-12-20T00:06:12;1.60;;;1.50;;
14611;SDS011;7392;52.078;11.650;2023-12-20T00:08:40;1.60;;;1.20;;
14611;SDS011;7392;52.078;11.650;2023-12-20T00:11:07;1.37;;;1.27;;
14611;SDS011;7392;52.078;11.650;2023-12-20T00:13:35;1.20;;;1.10;;
14611;SDS011;7392;52.078;11.650;2023-12-20T00:16:04;1.17;;;1.07;;
14611;SDS011;7392;52.078;11.650;2023-12-20T00:18:33;1.20;;;1.10;;
14611;SDS011;7392;52.078;11.650;2023-12-20T00:21:01;1.30;;;0.97;;
14611;SDS011;7392;52.078;11.650;2023-12-20T00:23:29;1.10;;;1.00;;
14611;SDS011;7392;52.078;11.650;2023-12-20T00:25:56;0.90;;;0.90;;
14611;SDS011;7392;52.078;11.650;2023-12-20T00:28:24;0.90;;;0.90;;
14611;SDS011;7392;52.078;11.650;2023-12-20T00:30:53;0.77;;;0.77;;
14611;SDS011;7392;52.078;11.650;2023-12-20T00:33:22;1.13;;;0.93;;
14611;SDS011;7392;52.078;11.650;2023-12-20T00:35:50;1.33;;;1.00;;
14611;SDS011;7392;52.078;11.650;2023-12-20T00:38:18;1.10;;;1.00;;
14611;SDS011;7392;52.078;11.650;2023-12-20T00:40:46;1.00;;;0.90;;
14611;SDS011;7392;52.078;11.650;2023-12-20T00:43:14;1.20;;;0.93;;
14611;SDS011;7392;52.078;11.650;2023-12-20T00:45:42;1.00;;;0.90;;
14611;SDS011;7392;52.078;11.650;2023-12-20T00:48:10;1.10;;;0.80;;
14611;SDS011;7392;52.078;11.650;2023-12-20T00:50:39;0.80;;;0.73;;
14611;SDS011;7392;52.078;11.650;2023-12-20T00:53:07;1.20;;;1.10;;
14611;SDS011;7392;52.078;11.650;2023-12-20T00:55:35;1.10;;;1.00;;
14611;SDS011;7392;52.078;11.650;2023-12-20T00:58:02;1.07;;;0.97;;
14611;SDS011;7392;52.078;11.650;2023-12-20T01:00:30;0.90;;;0.80;;
14611;SDS011;7392;52.078;11.650;2023-12-20T01:02:58;0.80;;;0.80;;
14611;SDS011;7392;52.078;11.650;2023-12-20T01:05:26;0.90;;;0.90;;
14611;SDS011;7392;52.078;11.650;2023-12-20T01:07:55;1.20;;;1.10;;
14611;SDS011;7392;52.078;11.650;2023-12-20T01:10:23;1.10;;;1.00;;
14611;SDS011;7392;52.078;11.650;2023-12-20T01:12:54;1.10;;;0.90;;
14611;SDS011;7392;52.078;11.650;2023-12-20T01:15:22;1.17;;;1.07;;
14611;SDS011;7392;52.078;11.650;2023-12-20T01:17:50;1.10;;;0.90;;
14611;SDS011;7392;52.078;11.650;2023-12-20T01:20:18;1.40;;;1.27;;
14611;SDS011;7392;52.078;11.650;2023-12-20T01:22:46;1.10;;;1.00;;
14611;SDS011;7392;52.078;11.650;2023-12-20T01:25:16;1.47;;;1.00;;
14611;SDS011;7392;52.078;11.650;2023-12-20T01:27:43;1.47;;;1.23;;
14611;SDS011;7392;52.078;11.650;2023-12-20T01:30:12;0.90;;;0.90;;
14611;SDS011;7392;52.078;11.650;2023-12-20T01:32:40;1.03;;;0.93;;
14611;SDS011;7392;52.078;11.650;2023-12-20T01:35:08;1.10;;;1.00;;
14611;SDS011;7392;52.078;11.650;2023-12-20T01:37:36;1.47;;;1.20;;
14611;SDS011;7392;52.078;11.650;2023-12-20T01:40:04;3.20;;;1.57;;
14611;SDS011;7392;52.078;11.650;2023-12-20T01:42:34;3.30;;;1.60;;
14611;SDS011;7392;52.078;11.650;2023-12-20T01:45:02;1.63;;;1.53;;
14611;SDS011;7392;52.078;11.650;2023-12-20T01:47:33;1.93;;;1.70;;
14611;SDS011;7392;52.078;11.650;2023-12-20T01:51:39;2.07;;;1.87;;
14611;SDS011;7392;52.078;11.650;2023-12-20T01:54:15;2.77;;;2.30;;
14611;SDS011;7392;52.078;11.650;2023-12-20T01:56:49;2.60;;;2.27;;
14611;SDS011;7392;52.078;11.650;2023-12-20T01:59:24;2.90;;;2.50;;
14611;SDS011;7392;52.078;11.650;2023-12-20T02:02:25;2.43;;;2.23;;
14611;SDS011;7392;52.078;11.650;2023-12-20T02:05:02;3.00;;;2.70;;
14611;SDS011;7392;52.078;11.650;2023-12-20T02:07:42;3.20;;;2.90;;
14611;SDS011;7392;52.078;11.650;2023-12-20T02:10:17;2.93;;;2.60;;
14611;SDS011;7392;52.078;11.650;2023-12-20T02:12:55;2.60;;;2.37;;
14611;SDS011;7392;52.078;11.650;2023-12-20T02:15:35;2.03;;;1.83;;
14611;SDS011;7392;52.078;11.650;2023-12-20T02:18:12;2.77;;;1.80;;
14611;SDS011;7392;52.078;11.650;2023-12-20T02:20:41;2.33;;;1.47;;
14611;SDS011;7392;52.078;11.650;2023-12-20T02:23:10;1.27;;;1.10;;
14611;SDS011;7392;52.078;11.650;2023-12-20T02:25:38;2.47;;;1.20;;
14611;SDS011;7392;52.078;11.650;2023-12-20T02:28:06;1.33;;;1.17;;
14611;SDS011;7392;52.078;11.650;2023-12-20T02:30:34;1.63;;;1.20;;
14611;SDS011;7392;52.078;11.650;2023-12-20T02:33:02;2.23;;;1.13;;
14611;SDS011;7392;52.078;11.650;2023-12-20T02:35:35;2.37;;;1.33;;
14611;SDS011;7392;52.078;11.650;2023-12-20T02:38:10;2.80;;;1.23;;
14611;SDS011;7392;52.078;11.650;2023-12-20T02:40:39;3.73;;;1.30;;
14611;SDS011;7392;52.078;11.650;2023-12-20T02:43:16;1.83;;;1.00;;
14611;SDS011;7392;52.078;11.650;2023-12-20T02:45:44;3.90;;;1.40;;
14611;SDS011;7392;52.078;11.650;2023-12-20T02:48:12;4.20;;;1.53;;
14611;SDS011;7392;52.078;11.650;2023-12-20T02:50:40;2.70;;;1.43;;
14611;SDS011;7392;52.078;11.650;2023-12-20T02:53:08;3.10;;;1.60;;
14611;SDS011;7392;52.078;11.650;2023-12-20T02:55:37;1.70;;;1.30;;
14611;SDS011;7392;52.078;11.650;2023-12-20T02:58:04;2.57;;;1.13;;
14611;SDS011;7392;52.078;11.650;2023-12-20T03:00:32;3.27;;;1.43;;
14611;SDS011;7392;52.078;11.650;2023-12-20T03:03:00;3.80;;;1.40;;
14611;SDS011;7392;52.078;11.650;2023-12-20T03:05:28;4.13;;;1.90;;
14611;SDS011;7392;52.078;11.650;2023-12-20T03:07:56;4.27;;;1.50;;
14611;SDS011;7392;52.078;11.650;2023-12-20T03:10:24;3.87;;;1.70;;
14611;SDS011;7392;52.078;11.650;2023-12-20T03:12:54;5.30;;;2.00;;
14611;SDS011;7392;52.078;11.650;2023-12-20T03:15:22;4.83;;;1.80;;
14611;SDS011;7392;52.078;11.650;2023-12-20T03:17:49;5.57;;;1.63;;
14611;SDS011;7392;52.078;11.650;2023-12-20T03:20:17;4.47;;;1.70;;
14611;SDS011;7392;52.078;11.650;2023-12-20T03:22:46;2.00;;;1.63;;
14611;SDS011;7392;52.078;11.650;2023-12-20T03:25:13;4.37;;;1.97;;
14611;SDS011;7392;52.078;11.650;2023-12-20T03:27:41;5.17;;;2.17;;
14611;SDS011;7392;52.078;11.650;2023-12-20T03:30:11;6.37;;;2.03;;
14611;SDS011;7392;52.078;11.650;2023-12-20T03:32:39;8.87;;;2.83;;
14611;SDS011;7392;52.078;11.650;2023-12-20T03:35:07;8.20;;;2.70;;
14611;SDS011;7392;52.078;11.650;2023-12-20T03:37:35;4.40;;;2.20;;
14611;SDS011;7392;52.078;11.650;2023-12-20T03:40:03;4.23;;;2.47;;
14611;SDS011;7392;52.078;11.650;2023-12-20T03:42:31;5.90;;;1.93;;
14611;SDS011;7392;52.078;11.650;2023-12-20T03:44:59;4.97;;;2.13;;
14611;SDS011;7392;52.078;11.650;2023-12-20T03:47:28;5.27;;;2.00;;
14611;SDS011;7392;52.078;11.650;2023-12-20T03:49:56;5.90;;;2.27;;
14611;SDS011;7392;52.078;11.650;2023-12-20T03:52:24;7.97;;;2.30;;
14611;SDS011;7392;52.078;11.650;2023-12-20T03:54:52;6.07;;;2.37;;
14611;SDS011;7392;52.078;11.650;2023-12-20T03:57:21;10.20;;;2.97;;
14611;SDS011;7392;52.078;11.650;2023-12-20T03:59:48;8.23;;;2.23;;
14611;SDS011;7392;52.078;11.650;2023-12-20T04:02:16;8.77;;;2.17;;
14611;SDS011;7392;52.078;11.650;2023-12-20T04:04:46;4.50;;;1.97;;
14611;SDS011;7392;52.078;11.650;2023-12-20T04:07:14;6.63;;;2.00;;
14611;SDS011;7392;52.078;11.650;2023-12-20T04:09:42;5.47;;;2.00;;
14611;SDS011;7392;52.078;11.650;2023-12-20T04:12:10;5.30;;;1.83;;
14611;SDS011;7392;52.078;11.650;2023-12-20T04:14:37;11.07;;;2.40;;
14611;SDS011;7392;52.078;11.650;2023-12-20T04:17:05;13.00;;;2.57;;
14611;SDS011;7392;52.078;11.650;2023-12-20T04:19:33;5.17;;;2.10;;
14611;SDS011;7392;52.078;11.650;2023-12-20T04:22:03;6.47;;;2.10;;
14611;SDS011;7392;52.078;11.650;2023-12-20T04:24:31;5.33;;;2.10;;
14611;SDS011;7392;52.078;11.650;2023-12-20T04:26:58;5.93;;;2.20;;
14611;SDS011;7392;52.078;11.650;2023-12-20T04:29:26;4.13;;;1.90;;
14611;SDS011;7392;52.078;11.650;2023-12-20T04:31:54;7.07;;;2.20;;
14611;SDS011;7392;52.078;11.650;2023-12-20T04:34:22;8.67;;;2.20;;
14611;SDS011;7392;52.078;11.650;2023-12-20T04:36:50;5.13;;;2.07;;
14611;SDS011;7392;52.078;11.650;2023-12-20T04:39:19;6.47;;;2.27;;
14611;SDS011;7392;52.078;11.650;2023-12-20T04:41:48;7.73;;;2.10;;
14611;SDS011;7392;52.078;11.650;2023-12-20T04:44:16;5.93;;;1.70;;
14611;SDS011;7392;52.078;11.650;2023-12-20T04:46:44;9.50;;;2.03;;
14611;SDS011;7392;52.078;11.650;2023-12-20T04:49:11;2.40;;;1.50;;
14611;SDS011;7392;52.078;11.650;2023-12-20T04:51:42;2.97;;;1.37;;
14611;SDS011;7392;52.078;11.650;2023-12-20T04:54:09;5.53;;;1.90;;
14611;SDS011;7392;52.078;11.650;2023-12-20T04:56:39;5.07;;;1.43;;
14611;SDS011;7392;52.078;11.650;2023-12-20T04:59:07;5.67;;;1.50;;
14611;SDS011;7392;52.078;11.650;2023-12-20T05:01:34;3.20;;;1.40;;
14611;SDS011;7392;52.078;11.650;2023-12-20T05:04:03;6.47;;;1.47;;
14611;SDS011;7392;52.078;11.650;2023-12-20T05:06:31;2.97;;;1.60;;
14611;SDS011;7392;52.078;11.650;2023-12-20T05:08:59;5.90;;;1.40;;
14611;SDS011;7392;52.078;11.650;2023-12-20T05:11:27;6.97;;;1.43;;
14611;SDS011;7392;52.078;11.650;2023-12-20T05:13:59;6.87;;;1.30;;
14611;SDS011;7392;52.078;11.650;2023-12-20T05:16:29;4.07;;;1.47;;
14611;SDS011;7392;52.078;11.650;2023-12-20T05:18:56;3.23;;;1.00;;
14611;SDS011;7392;52.078;11.650;2023-12-20T05:21:27;2.50;;;1.20;;
14611;SDS011;7392;52.078;11.650;2023-12-20T05:23:54;6.53;;;1.70;;
14611;SDS011;7392;52.078;11.650;2023-12-20T05:26:22;2.87;;;1.30;;
14611;SDS011;7392;52.078;11.650;2023-12-20T05:28:50;6.80;;;1.57;;
14611;SDS011;7392;52.078;11.650;2023-12-20T05:31:21;3.83;;;1.30;;
14611;SDS011;7392;52.078;11.650;2023-12-20T05:33:49;7.63;;;1.60;;
14611;SDS011;7392;52.078;11.650;2023-12-20T05:36:17;7.13;;;2.00;;
14611;SDS011;7392;52.078;11.650;2023-12-20T05:38:46;3.70;;;1.50;;
14611;SDS011;7392;52.078;11.650;2023-12-20T05:41:13;6.07;;;1.60;;
14611;SDS011;7392;52.078;11.650;2023-12-20T05:43:42;6.33;;;1.70;;
14611;SDS011;7392;52.078;11.650;2023-12-20T05:46:10;5.63;;;1.80;;
14611;SDS011;7392;52.078;11.650;2023-12-20T05:48:40;4.63;;;1.57;;
14611;SDS011;7392;52.078;11.650;2023-12-20T05:51:07;4.83;;;1.80;;
14611;SDS011;7392;52.078;11.650;2023-12-20T05:53:41;4.43;;;1.80;;
14611;SDS011;7392;52.078;11.650;2023-12-20T05:56:08;7.10;;;1.83;;
14611;SDS011;7392;52.078;11.650;2023-12-20T05:58:36;3.70;;;1.60;;
14611;SDS011;7392;52.078;11.650;2023-12-20T06:01:05;3.00;;;1.60;;
14611;SDS011;7392;52.078;11.650;2023-12-20T06:06:30;6.73;;;1.97;;
14611;SDS011;7392;52.078;11.650;2023-12-20T06:08:58;4.23;;;1.40;;
14611;SDS011;7392;52.078;11.650;2023-12-20T06:11:26;5.90;;;1.40;;
14611;SDS011;7392;52.078;11.650;2023-12-20T06:13:54;3.27;;;1.50;;
14611;SDS011;7392;52.078;11.650;2023-12-20T06:16:21;4.67;;;1.47;;
14611;SDS011;7392;52.078;11.650;2023-12-20T06:18:49;2.87;;;1.00;;
14611;SDS011;7392;52.078;11.650;2023-12-20T06:21:19;4.77;;;1.43;;
14611;SDS011;7392;52.078;11.650;2023-12-20T06:23:47;4.93;;;1.23;;
14611;SDS011;7392;52.078;11.650;2023-12-20T06:26:15;4.00;;;1.20;;
14611;SDS011;7392;52.078;11.650;2023-12-20T06:28:45;4.07;;;1.50;;
14611;SDS011;7392;52.078;11.650;2023-12-20T06:31:12;9.00;;;1.67;;
14611;SDS011;7392;52.078;11.650;2023-12-20T06:33:40;6.63;;;1.60;;
14611;SDS011;7392;52.078;11.650;2023-12-20T06:36:10;6.33;;;1.07;;
14611;SDS011;7392;52.078;11.650;2023-12-20T06:38:40;4.23;;;1.30;;
14611;SDS011;7392;52.078;11.650;2023-12-20T06:41:08;5.43;;;1.37;;
14611;SDS011;7392;52.078;11.650;2023-12-20T06:43:40;5.60;;;1.53;;
14611;SDS011;7392;52.078;11.650;2023-12-20T06:46:16;4.03;;;1.40;;
14611;SDS011;7392;52.078;11.650;2023-12-20T06:48:46;6.13;;;1.60;;
14611;SDS011;7392;52.078;11.650;2023-12-20T06:51:16;8.90;;;1.80;;
14611;SDS011;7392;52.078;11.650;2023-12-20T06:53:48;5.53;;;1.40;;
14611;SDS011;7392;52.078;11.650;2023-12-20T06:56:18;5.17;;;1.30;;
14611;SDS011;7392;52.078;11.650;2023-12-20T06:58:47;3.70;;;1.40;;
14611;SDS011;7392;52.078;11.650;2023-12-20T07:01:16;4.63;;;1.47;;
14611;SDS011;7392;52.078;11.650;2023-12-20T07:03:44;5.37;;;1.20;;
14611;SDS011;7392;52.078;11.650;2023-12-20T07:06:12;5.43;;;1.30;;
14611;SDS011;7392;52.078;11.650;2023-12-20T07:08:42;5.20;;;1.17;;
14611;SDS011;7392;52.078;11.650;2023-12-20T07:11:11;5.03;;;1.33;;
14611;SDS011;7392;52.078;11.650;2023-12-20T07:13:38;6.13;;;1.67;;
14611;SDS011;7392;52.078;11.650;2023-12-20T07:16:06;5.57;;;1.50;;
14611;SDS011;7392;52.078;11.650;2023-12-20T07:18:34;4.93;;;1.87;;
14611;SDS011;7392;52.078;11.650;2023-12-20T07:21:04;4.83;;;1.60;;
14611;SDS011;7392;52.078;11.650;2023-12-20T07:23:34;6.83;;;1.70;;
14611;SDS011;7392;52.078;11.650;2023-12-20T07:26:03;5.63;;;1.40;;
14611;SDS011;7392;52.078;11.650;2023-12-20T07:28:33;8.60;;;1.70;;
14611;SDS011;7392;52.078;11.650;2023-12-20T07:31:02;7.30;;;1.90;;
14611;SDS011;7392;52.078;11.650;2023-12-20T07:33:32;4.77;;;1.50;;
14611;SDS011;7392;52.078;11.650;2023-12-20T07:36:05;5.07;;;1.60;;
14611;SDS011;7392;52.078;11.650;2023-12-20T07:38:35;7.97;;;1.50;;
14611;SDS011;7392;52.078;11.650;2023-12-20T07:41:04;6.67;;;2.17;;
14611;SDS011;7392;52.078;11.650;2023-12-20T07:43:34;4.27;;;1.70;;
14611;SDS011;7392;52.078;11.650;2023-12-20T07:46:05;8.27;;;1.80;;
14611;SDS011;7392;52.078;11.650;2023-12-20T07:48:35;8.40;;;2.30;;
14611;SDS011;7392;52.078;11.650;2023-12-20T07:51:04;9.17;;;2.00;;
14611;SDS011;7392;52.078;11.650;2023-12-20T07:53:33;9.30;;;1.90;;
14611;SDS011;7392;52.078;11.650;2023-12-20T07:56:01;5.30;;;1.73;;
14611;SDS011;7392;52.078;11.650;2023-12-20T07:58:29;5.87;;;1.80;;
14611;SDS011;7392;52.078;11.650;2023-12-20T08:01:17;7.07;;;1.60;;
14611;SDS011;7392;52.078;11.650;2023-12-20T08:03:45;8.87;;;2.87;;
14611;SDS011;7392;52.078;11.650;2023-12-20T08:06:13;8.10;;;2.43;;
14611;SDS011;7392;52.078;11.650;2023-12-20T08:08:43;8.17;;;2.27;;
14611;SDS011;7392;52.078;11.650;2023-12-20T08:11:18;8.80;;;1.90;;
14611;SDS011;7392;52.078;11.650;2023-12-20T08:13:46;6.83;;;2.30;;
14611;SDS011;7392;52.078;11.650;2023-12-20T08:16:14;6.73;;;2.50;;
14611;SDS011;7392;52.078;11.650;2023-12-20T08:18:45;14.13;;;2.30;;
14611;SDS011;7392;52.078;11.650;2023-12-20T08:21:13;10.30;;;2.33;;
14611;SDS011;7392;52.078;11.650;2023-12-20T08:23:41;9.17;;;2.20;;
14611;SDS011;7392;52.078;11.650;2023-12-20T08:26:09;5.73;;;2.00;;
14611;SDS011;7392;52.078;11.650;2023-12-20T08:28:37;9.80;;;2.17;;
14611;SDS011;7392;52.078;11.650;2023-12-20T08:31:05;7.23;;;2.00;;
14611;SDS011;7392;52.078;11.650;2023-12-20T08:33:33;8.43;;;2.57;;
14611;SDS011;7392;52.078;11.650;2023-12-20T08:36:03;7.53;;;1.90;;
14611;SDS011;7392;52.078;11.650;2023-12-20T08:38:31;6.93;;;2.27;;
14611;SDS011;7392;52.078;11.650;2023-12-20T08:40:59;9.93;;;2.33;;
14611;SDS011;7392;52.078;11.650;2023-12-20T08:43:27;7.90;;;1.87;;
14611;SDS011;7392;52.078;11.650;2023-12-20T08:45:55;9.10;;;2.33;;
14611;SDS011;7392;52.078;11.650;2023-12-20T08:48:23;11.50;;;2.60;;
14611;SDS011;7392;52.078;11.650;2023-12-20T08:50:51;6.83;;;1.80;;
14611;SDS011;7392;52.078;11.650;2023-12-20T08:53:20;6.30;;;2.27;;
14611;SDS011;7392;52.078;11.650;2023-12-20T08:55:48;9.73;;;2.30;;
14611;SDS011;7392;52.078;11.650;2023-12-20T08:58:16;10.40;;;2.70;;
14611;SDS011;7392;52.078;11.650;2023-12-20T09:00:45;9.90;;;2.37;;
14611;SDS011;7392;52.078;11.650;2023-12-20T09:03:13;9.13;;;2.23;;
14611;SDS011;7392;52.078;11.650;2023-12-20T09:05:41;6.37;;;2.07;;
14611;SDS011;7392;52.078;11.650;2023-12-20T09:08:09;6.20;;;1.90;;
14611;SDS011;7392;52.078;11.650;2023-12-20T09:10:40;10.00;;;2.23;;
14611;SDS011;7392;52.078;11.650;2023-12-20T09:13:07;6.87;;;2.40;;
14611;SDS011;7392;52.078;11.650;2023-12-20T09:15:35;9.50;;;1.90;;
14611;SDS011;7392;52.078;11.650;2023-12-20T09:18:03;9.53;;;2.87;;
14611;SDS011;7392;52.078;11.650;2023-12-20T09:20:32;8.90;;;2.70;;
14611;SDS011;7392;52.078;11.650;2023-12-20T09:23:01;9.97;;;2.10;;
14611;SDS011;7392;52.078;11.650;2023-12-20T09:25:29;10.47;;;2.33;;
14611;SDS011;7392;52.078;11.650;2023-12-20T09:27:58;8.67;;;2.37;;
14611;SDS011;7392;52.078;11.650;2023-12-20T09:30:26;7.37;;;2.10;;
14611;SDS011;7392;52.078;11.650;2023-12-20T09:32:55;6.43;;;1.97;;
14611;SDS011;7392;52.078;11.650;2023-12-20T09:35:23;8.03;;;2.33;;
14611;SDS011;7392;52.078;11.650;2023-12-20T09:37:53;9.87;;;2.20;;
14611;SDS011;7392;52.078;11.650;2023-12-20T09:40:21;6.27;;;2.20;;
14611;SDS011;7392;52.078;11.650;2023-12-20T09:42:55;7.90;;;2.13;;
14611;SDS011;7392;52.078;11.650;2023-12-20T09:45:27;8.80;;;2.20;;
14611;SDS011;7392;52.078;11.650;2023-12-20T09:47:54;9.37;;;2.53;;
14611;SDS011;7392;52.078;11.650;2023-12-20T09:50:23;12.73;;;2.60;;
14611;SDS011;7392;52.078;11.650;2023-12-20T09:52:52;8.97;;;2.17;;
14611;SDS011;7392;52.078;11.650;2023-12-20T09:55:23;5.40;;;2.30;;
14611;SDS011;7392;52.078;11.650;2023-12-20T09:57:52;6.23;;;2.07;;
14611;SDS011;7392;52.078;11.650;2023-12-20T10:00:21;7.73;;;2.10;;
14611;SDS011;7392;52.078;11.650;2023-12-20T10:02:53;7.83;;;2.03;;
14611;SDS011;7392;52.078;11.650;2023-12-20T10:05:26;8.70;;;2.13;;
14611;SDS011;7392;52.078;11.650;2023-12-20T10:08:01;8.97;;;2.43;;
14611;SDS011;7392;52.078;11.650;2023-12-20T10:10:30;5.33;;;1.90;;
14611;SDS011;7392;52.078;11.650;2023-12-20T10:13:11;7.90;;;1.93;;
14611;SDS011;7392;52.078;11.650;2023-12-20T10:15:42;6.13;;;2.23;;
14611;SDS011;7392;52.078;11.650;2023-12-20T10:18:11;6.07;;;2.23;;
14611;SDS011;7392;52.078;11.650;2023-12-20T10:20:40;5.27;;;2.00;;
14611;SDS011;7392;52.078;11.650;2023-12-20T10:23:09;7.60;;;2.00;;
14611;SDS011;7392;52.078;11.650;2023-12-20T10:25:39;9.57;;;2.13;;
14611;SDS011;7392;52.078;11.650;2023-12-20T10:28:08;5.93;;;2.07;;
14611;SDS011;7392;52.078;11.650;2023-12-20T10:30:37;6.43;;;1.90;;
14611;SDS011;7392;52.078;11.650;2023-12-20T10:33:06;7.03;;;2.30;;
14611;SDS011;7392;52.078;11.650;2023-12-20T10:35:36;7.00;;;1.90;;
14611;SDS011;7392;52.078;11.650;2023-12-20T10:38:10;7.77;;;2.13;;
14611;SDS011;7392;52.078;11.650;2023-12-20T10:40:40;5.67;;;1.93;;
14611;SDS011;7392;52.078;11.650;2023-12-20T10:43:08;8.03;;;2.30;;
14611;SDS011;7392;52.078;11.650;2023-12-20T10:45:36;5.87;;;2.23;;
14611;SDS011;7392;52.078;11.650;2023-12-20T10:48:04;6.73;;;2.43;;
14611;SDS011;7392;52.078;11.650;2023-12-20T10:50:33;5.67;;;2.03;;
14611;SDS011;7392;52.078;11.650;2023-12-20T10:53:06;8.83;;;2.20;;
14611;SDS011;7392;52.078;11.650;2023-12-20T10:55:34;7.60;;;2.00;;
14611;SDS011;7392;52.078;11.650;2023-12-20T10:58:06;4.33;;;1.50;;
14611;SDS011;7392;52.078;11.650;2023-12-20T11:00:35;8.60;;;1.93;;
14611;SDS011;7392;52.078;11.650;2023-12-20T11:03:06;7.07;;;2.00;;
14611;SDS011;7392;52.078;11.650;2023-12-20T11:05:38;8.43;;;2.07;;
14611;SDS011;7392;52.078;11.650;2023-12-20T11:08:17;4.97;;;2.27;;
14611;SDS011;7392;52.078;11.650;2023-12-20T11:11:02;9.67;;;2.30;;
14611;SDS011;7392;52.078;11.650;2023-12-20T11:13:34;7.03;;;2.27;;
14611;SDS011;7392;52.078;11.650;2023-12-20T11:16:05;5.20;;;2.20;;
14611;SDS011;7392;52.078;11.650;2023-12-20T11:18:34;6.80;;;2.20;;
14611;SDS011;7392;52.078;11.650;2023-12-20T11:21:04;6.13;;;2.00;;
14611;SDS011;7392;52.078;11.650;2023-12-20T11:23:32;8.20;;;2.17;;
14611;SDS011;7392;52.078;11.650;2023-12-20T11:26:01;14.83;;;2.67;;
14611;SDS011;7392;52.078;11.650;2023-12-20T11:28:30;8.53;;;2.43;;
14611;SDS011;7392;52.078;11.650;2023-12-20T11:30:58;4.97;;;1.80;;
14611;SDS011;7392;52.078;11.650;2023-12-20T11:33:29;6.87;;;2.10;;
14611;SDS011;7392;52.078;11.650;2023-12-20T11:36:07;5.10;;;1.87;;
14611;SDS011;7392;52.078;11.650;2023-12-20T11:38:49;1.70;;;1.00;;
14611;SDS011;7392;52.078;11.650;2023-12-20T11:41:23;4.93;;;1.67;;
14611;SDS011;7392;52.078;11.650;2023-12-20T11:43:53;7.60;;;1.53;;
14611;SDS011;7392;52.078;11.650;2023-12-20T11:46:21;3.57;;;1.30;;
14611;SDS011;7392;52.078;11.650;2023-12-20T11:48:50;4.77;;;1.80;;
14611;SDS011;7392;52.078;11.650;2023-12-20T11:51:19;4.17;;;1.47;;
14611;SDS011;7392;52.078;11.650;2023-12-20T11:53:50;2.07;;;1.47;;
14611;SDS011;7392;52.078;11.650;2023-12-20T11:56:19;3.67;;;1.60;;
14611;SDS011;7392;52.078;11.650;2023-12-20T11:58:47;5.90;;;1.87;;
14611;SDS011;7392;52.078;11.650;2023-12-20T12:01:17;3.73;;;1.57;;
14611;SDS011;7392;52.078;11.650;2023-12-20T12:03:45;5.40;;;1.60;;
14611;SDS011;7392;52.078;11.650;2023-12-20T12:06:13;2.93;;;1.40;;
14611;SDS011;7392;52.078;11.650;2023-12-20T12:08:42;7.77;;;2.00;;
14611;SDS011;7392;52.078;11.650;2023-12-20T12:11:10;5.27;;;1.80;;
14611;SDS011;7392;52.078;11.650;2023-12-20T12:13:37;5.77;;;1.80;;
14611;SDS011;7392;52.078;11.650;2023-12-20T12:16:05;6.10;;;1.80;;
14611;SDS011;7392;52.078;11.650;2023-12-20T12:18:33;7.03;;;2.30;;
14611;SDS011;7392;52.078;11.650;2023-12-20T12:21:02;7.03;;;2.20;;
14611;SDS011;7392;52.078;11.650;2023-12-20T12:23:38;5.37;;;1.77;;
14611;SDS011;7392;52.078;11.650;2023-12-20T12:26:08;4.73;;;1.70;;
14611;SDS011;7392;52.078;11.650;2023-12-20T12:28:35;4.97;;;1.63;;
14611;SDS011;7392;52.078;11.650;2023-12-20T12:31:03;3.83;;;1.80;;
14611;SDS011;7392;52.078;11.650;2023-12-20T12:33:31;6.93;;;2.40;;
14611;SDS011;7392;52.078;11.650;2023-12-20T12:35:59;6.77;;;2.10;;
14611;SDS011;7392;52.078;11.650;2023-12-20T12:38:27;6.27;;;1.80;;
14611;SDS011;7392;52.078;11.650;2023-12-20T12:40:55;4.23;;;1.93;;
14611;SDS011;7392;52.078;11.650;2023-12-20T12:43:24;5.27;;;2.20;;
14611;SDS011;7392;52.078;11.650;2023-12-20T12:45:53;5.50;;;2.03;;
14611;SDS011;7392;52.078;11.650;2023-12-20T12:48:21;5.10;;;2.00;;
14611;SDS011;7392;52.078;11.650;2023-12-20T12:50:49;4.03;;;1.90;;
14611;SDS011;7392;52.078;11.650;2023-12-20T12:53:18;5.97;;;2.00;;
14611;SDS011;7392;52.078;11.650;2023-12-20T12:55:46;5.43;;;1.90;;
14611;SDS011;7392;52.078;11.650;2023-12-20T12:58:14;3.53;;;1.63;;
14611;SDS011;7392;52.078;11.650;2023-12-20T13:00:43;8.30;;;2.33;;
14611;SDS011;7392;52.078;11.650;2023-12-20T13:03:11;4.60;;;1.90;;
14611;SDS011;7392;52.078;11.650;2023-12-20T13:05:39;4.57;;;1.80;;
14611;SDS011;7392;52.078;11.650;2023-12-20T13:08:11;3.73;;;1.83;;
14611;SDS011;7392;52.078;11.650;2023-12-20T13:10:40;5.23;;;1.80;;
14611;SDS011;7392;52.078;11.650;2023-12-20T13:13:08;6.03;;;2.00;;
14611;SDS011;7392;52.078;11.650;2023-12-20T13:15:35;12.47;;;2.60;;
14611;SDS011;7392;52.078;11.650;2023-12-20T13:18:05;4.73;;;2.03;;
14611;SDS011;7392;52.078;11.650;2023-12-20T13:20:33;4.50;;;1.80;;
14611;SDS011;7392;52.078;11.650;2023-12-20T13:23:01;3.63;;;1.70;;
14611;SDS011;7392;52.078;11.650;2023-12-20T13:25:30;6.83;;;1.80;;
14611;SDS011;7392;52.078;11.650;2023-12-20T13:27:57;4.00;;;1.90;;
14611;SDS011;7392;52.078;11.650;2023-12-20T13:30:25;6.80;;;1.83;;
14611;SDS011;7392;52.078;11.650;2023-12-20T13:32:53;4.33;;;1.90;;
14611;SDS011;7392;52.078;11.650;2023-12-20T13:35:22;4.23;;;1.83;;
14611;SDS011;7392;52.078;11.650;2023-12-20T13:37:49;2.90;;;1.67;;
14611;SDS011;7392;52.078;11.650;2023-12-20T13:40:17;4.87;;;1.73;;
14611;SDS011;7392;52.078;11.650;2023-12-20T13:42:46;3.60;;;1.70;;
14611;SDS011;7392;52.078;11.650;2023-12-20T13:45:14;2.40;;;1.50;;
14611;SDS011;7392;52.078;11.650;2023-12-20T13:47:43;4.47;;;1.80;;
14611;SDS011;7392;52.078;11.650;2023-12-20T13:50:11;5.80;;;2.40;;
14611;SDS011;7392;52.078;11.650;2023-12-20T13:52:40;4.30;;;1.63;;
14611;SDS011;7392;52.078;11.650;2023-12-20T13:55:08;3.17;;;1.53;;
14611;SDS011;7392;52.078;11.650;2023-12-20T13:57:36;3.50;;;1.80;;
14611;SDS011;7392;52.078;11.650;2023-12-20T14:00:20;5.07;;;1.70;;
14611;SDS011;7392;52.078;11.650;2023-12-20T14:02:48;3.37;;;1.47;;
14611;SDS011;7392;52.078;11.650;2023-12-20T14:05:16;4.57;;;1.60;;
14611;SDS011;7392;52.078;11.650;2023-12-20T14:07:46;4.00;;;1.60;;
14611;SDS011;7392;52.078;11.650;2023-12-20T14:10:15;4.03;;;1.53;;
14611;SDS011;7392;52.078;11.650;2023-12-20T14:12:43;4.63;;;1.23;;
14611;SDS011;7392;52.078;11.650;2023-12-20T14:15:11;3.53;;;1.20;;
14611;SDS011;7392;52.078;11.650;2023-12-20T14:17:40;4.23;;;1.53;;
14611;SDS011;7392;52.078;11.650;2023-12-20T14:20:10;1.53;;;0.70;;
14611;SDS011;7392;52.078;11.650;2023-12-20T14:22:39;2.67;;;1.03;;
14611;SDS011;7392;52.078;11.650;2023-12-20T14:25:12;1.10;;;0.77;;
14611;SDS011;7392;52.078;11.650;2023-12-20T14:27:40;2.07;;;0.67;;
14611;SDS011;7392;52.078;11.650;2023-12-20T14:30:11;2.17;;;0.83;;
14611;SDS011;7392;52.078;11.650;2023-12-20T14:32:41;1.87;;;0.90;;
14611;SDS011;7392;52.078;11.650;2023-12-20T14:35:08;2.73;;;1.20;;
14611;SDS011;7392;52.078;11.650;2023-12-20T14:37:37;3.37;;;1.27;;
14611;SDS011;7392;52.078;11.650;2023-12-20T14:40:06;3.10;;;1.00;;
14611;SDS011;7392;52.078;11.650;2023-12-20T14:42:38;4.87;;;1.43;;
14611;SDS011;7392;52.078;11.650;2023-12-20T14:45:06;5.67;;;1.20;;
14611;SDS011;7392;52.078;11.650;2023-12-20T14:47:35;2.77;;;1.07;;
14611;SDS011;7392;52.078;11.650;2023-12-20T14:50:03;2.93;;;1.10;;
14611;SDS011;7392;52.078;11.650;2023-12-20T14:52:32;4.20;;;1.00;;
14611;SDS011;7392;52.078;11.650;2023-12-20T14:55:01;2.60;;;1.03;;
14611;SDS011;7392;52.078;11.650;2023-12-20T14:57:30;1.50;;;0.80;;
14611;SDS011;7392;52.078;11.650;2023-12-20T14:59:59;2.53;;;0.90;;
14611;SDS011;7392;52.078;11.650;2023-12-20T15:02:27;2.63;;;0.90;;
14611;SDS011;7392;52.078;11.650;2023-12-20T15:04:55;2.67;;;1.03;;